Time;durP1;ratioP1;P1;durP2;ratioP2;P2;SDS_P1;SDS_P2;PMS_P1;PMS_P2;Temp;Humidity;BMP_temperature;BMP_pressure;BME280_temperature;BME280_humidity;BME280_pressure;Samples;Min_cycle;Max_cycle;Signal;HPM_P1;HPM_P2
2023/05/26 00:00:52;;;;;;;28.15;17.23;;;14.50;99.90;;;;;;7588250;19;20015;-74
2023/05/26 00:03:27;;;;;;;26.50;17.60;;;14.30;99.90;;;;;;7584362;19;20035;-74
2023/05/26 00:06:00;;;;;;;25.98;19.25;;;14.30;99.90;;;;;;7578098;19;20482;-75
2023/05/26 00:08:32;;;;;;;25.65;18.42;;;14.10;99.90;;;;;;7571826;19;20018;-75
2023/05/26 00:11:05;;;;;;;29.30;18.67;;;14.10;99.90;;;;;;7592892;19;20033;-74
2023/05/26 00:13:37;;;;;;;28.60;18.90;;;14.10;99.90;;;;;;7590229;19;20013;-74
2023/05/26 00:16:09;;;;;;;23.25;16.95;;;14.10;99.90;;;;;;7590351;19;20413;-74
2023/05/26 00:18:42;;;;;;;23.08;17.35;;;14.10;99.90;;;;;;7584267;19;20014;-74
2023/05/26 00:21:14;;;;;;;23.27;17.17;;;14.00;99.90;;;;;;7592762;19;20019;-74
2023/05/26 00:23:46;;;;;;;24.27;17.53;;;13.90;99.90;;;;;;7595448;19;20039;-74
2023/05/26 00:26:19;;;;;;;25.55;16.90;;;13.90;99.90;;;;;;7589887;19;20048;-74
2023/05/26 00:28:55;;;;;;;25.23;17.77;;;13.90;99.90;;;;;;7587239;19;20832;-74
2023/05/26 00:31:29;;;;;;;22.75;16.42;;;13.80;99.90;;;;;;7600847;19;20026;-73
2023/05/26 00:34:02;;;;;;;22.67;16.35;;;13.80;99.90;;;;;;7589898;19;20034;-74
2023/05/26 00:36:35;;;;;;;24.05;16.83;;;13.80;99.90;;;;;;7588602;19;20026;-73
2023/05/26 00:39:08;;;;;;;25.90;17.05;;;13.80;99.90;;;;;;7597267;19;20019;-75
2023/05/26 00:41:40;;;;;;;28.90;17.80;;;13.70;99.90;;;;;;7593666;19;20089;-74
2023/05/26 00:44:13;;;;;;;25.58;16.95;;;13.70;99.90;;;;;;7589953;19;20599;-74
2023/05/26 00:46:45;;;;;;;22.13;16.50;;;13.60;99.90;;;;;;7587538;19;20128;-74
2023/05/26 00:49:19;;;;;;;22.40;16.23;;;13.50;99.90;;;;;;7581378;19;20014;-75
2023/05/26 00:51:51;;;;;;;25.35;17.02;;;13.50;99.90;;;;;;7596594;19;20860;-75
2023/05/26 00:54:24;;;;;;;22.92;17.13;;;13.50;99.90;;;;;;7591275;19;20800;-74
2023/05/26 00:56:58;;;;;;;28.85;19.42;;;13.40;99.90;;;;;;7589775;19;20019;-74
2023/05/26 00:59:31;;;;;;;21.77;16.10;;;13.40;99.90;;;;;;7589258;19;20073;-74
2023/05/26 01:02:03;;;;;;;23.50;18.88;;;13.40;99.90;;;;;;7584546;19;20054;-75
2023/05/26 01:04:40;;;;;;;23.02;16.23;;;13.40;99.90;;;;;;7576264;19;20026;-74
2023/05/26 01:07:13;;;;;;;20.38;15.88;;;13.40;99.90;;;;;;7581851;19;20048;-75
2023/05/26 01:09:49;;;;;;;24.15;17.00;;;13.30;99.90;;;;;;7590994;19;20619;-76
2023/05/26 01:12:34;;;;;;;27.25;18.55;;;13.30;99.90;;;;;;7587378;19;20026;-75
2023/05/26 01:15:12;;;;;;;25.98;16.73;;;13.30;99.90;;;;;;7591417;19;20014;-75
2023/05/26 01:18:03;;;;;;;26.40;17.23;;;13.20;99.90;;;;;;7582967;19;20018;-74
2023/05/26 01:20:45;;;;;;;24.20;17.25;;;13.30;99.90;;;;;;7588506;19;20036;-74
2023/05/26 01:23:33;;;;;;;21.60;16.60;;;13.40;99.90;;;;;;7587622;19;21080;-75
2023/05/26 01:26:31;;;;;;;23.40;17.60;;;13.30;99.90;;;;;;7589425;19;20041;-74
2023/05/26 01:29:11;;;;;;;25.80;16.23;;;13.20;99.90;;;;;;7574627;19;20014;-74
2023/05/26 01:31:43;;;;;;;29.35;18.83;;;13.00;99.90;;;;;;7586993;19;20029;-76
2023/05/26 01:34:15;;;;;;;26.70;16.55;;;13.00;99.90;;;;;;7586551;19;20022;-76
2023/05/26 01:36:48;;;;;;;19.83;15.05;;;12.90;99.90;;;;;;7587346;19;20381;-75
2023/05/26 01:39:20;;;;;;;22.98;17.48;;;12.90;99.90;;;;;;7587135;19;20022;-75
2023/05/26 01:42:04;;;;;;;25.27;16.88;;;12.80;99.90;;;;;;7576644;19;20015;-74
2023/05/26 01:44:44;;;;;;;21.83;16.20;;;12.90;99.90;;;;;;7579346;19;20065;-75
2023/05/26 01:47:18;;;;;;;27.10;16.88;;;13.00;99.90;;;;;;7581957;19;20349;-74
2023/05/26 01:49:51;;;;;;;;;;;13.00;99.90;;;;;;7578742;19;20670;-74
2023/05/26 01:52:24;;;;;;;23.25;15.95;;;12.90;99.90;;;;;;7592097;19;19927;-75
2023/05/26 01:55:03;;;;;;;25.80;17.17;;;12.80;99.90;;;;;;7585837;19;20060;-74
2023/05/26 01:57:36;;;;;;;25.58;17.17;;;12.70;99.90;;;;;;7588599;19;20125;-75
2023/05/26 02:00:15;;;;;;;23.85;16.85;;;12.70;99.90;;;;;;7585744;19;20022;-74
2023/05/26 02:02:47;;;;;;;21.35;16.45;;;12.70;99.90;;;;;;7584618;19;20010;-75
2023/05/26 02:05:20;;;;;;;23.52;16.83;;;12.80;99.90;;;;;;7575365;19;20599;-74
2023/05/26 02:07:52;;;;;;;25.20;16.20;;;12.70;99.90;;;;;;7587347;19;20021;-74
2023/05/26 02:10:24;;;;;;;26.77;17.98;;;12.80;99.90;;;;;;7590329;19;20923;-74
2023/05/26 02:12:57;;;;;;;28.60;18.23;;;12.70;99.90;;;;;;7590809;19;20655;-75
2023/05/26 02:15:29;;;;;;;24.35;16.13;;;12.60;99.90;;;;;;7588199;19;21008;-76
2023/05/26 02:18:02;;;;;;;24.58;16.50;;;12.50;99.90;;;;;;7586671;19;20014;-75
2023/05/26 02:20:35;;;;;;;22.00;15.13;;;12.50;99.90;;;;;;7581725;19;20766;-74
2023/05/26 02:23:07;;;;;;;21.15;15.43;;;12.40;99.90;;;;;;7586415;19;20014;-74
2023/05/26 02:25:41;;;;;;;;;;;12.40;99.90;;;;;;7593757;19;20524;-74
2023/05/26 02:28:13;;;;;;;24.23;16.20;;;12.40;99.90;;;;;;7590013;19;20012;-75
2023/05/26 02:30:45;;;;;;;20.17;16.17;;;12.40;99.90;;;;;;7590067;19;21436;-74
2023/05/26 02:33:18;;;;;;;20.65;16.30;;;12.40;99.90;;;;;;7577900;19;20023;-74
2023/05/26 02:35:50;;;;;;;25.08;17.17;;;12.40;99.90;;;;;;7593005;19;20019;-74
2023/05/26 02:38:22;;;;;;;23.63;16.38;;;12.40;99.90;;;;;;7601625;19;20062;-76
2023/05/26 02:40:55;;;;;;;24.60;17.15;;;12.30;99.90;;;;;;7603655;19;20028;-74
2023/05/26 02:43:27;;;;;;;22.02;15.82;;;12.40;99.90;;;;;;7595697;19;20188;-74
2023/05/26 02:46:00;;;;;;;20.77;15.40;;;12.30;99.90;;;;;;7598789;19;20050;-74
2023/05/26 02:48:34;;;;;;;;;;;12.20;99.90;;;;;;7600603;19;20034;-73
2023/05/26 02:51:06;;;;;;;22.60;16.02;;;12.20;99.90;;;;;;7602684;19;20001;-75
2023/05/26 02:53:40;;;;;;;22.48;15.38;;;12.10;99.90;;;;;;7605336;19;20014;-76
2023/05/26 02:56:12;;;;;;;21.27;14.82;;;12.10;99.90;;;;;;7595637;19;20023;-76
2023/05/26 02:58:44;;;;;;;20.08;14.63;;;12.00;99.90;;;;;;7589296;19;20555;-75
2023/05/26 03:01:16;;;;;;;20.88;14.82;;;12.00;99.90;;;;;;7592330;19;20011;-74
2023/05/26 03:03:49;;;;;;;21.55;14.45;;;12.00;99.90;;;;;;7593964;19;20024;-76
2023/05/26 03:06:22;;;;;;;19.50;15.07;;;11.90;99.90;;;;;;7598377;19;20014;-74
2023/05/26 03:08:55;;;;;;;;;;;11.90;99.90;;;;;;7599389;19;20963;-76
2023/05/26 03:11:27;;;;;;;24.35;16.90;;;11.90;99.90;;;;;;7603078;19;20743;-76
2023/05/26 03:14:00;;;;;;;24.25;15.07;;;11.80;99.90;;;;;;7598524;19;20018;-75
2023/05/26 03:16:33;;;;;;;20.33;15.02;;;11.80;99.90;;;;;;7588298;19;20044;-75
2023/05/26 03:19:07;;;;;;;22.83;15.73;;;11.80;99.90;;;;;;7593738;19;20006;-75
2023/05/26 03:21:40;;;;;;;22.23;16.05;;;11.80;99.90;;;;;;7591559;19;20010;-74
2023/05/26 03:24:21;;;;;;;26.10;17.38;;;11.70;99.90;;;;;;7595477;19;20021;-75
2023/05/26 03:26:53;;;;;;;21.60;15.25;;;11.60;99.90;;;;;;7599728;19;20129;-73
2023/05/26 03:29:29;;;;;;;23.38;14.10;;;11.60;99.90;;;;;;7595449;19;20041;-74
2023/05/26 03:32:02;;;;;;;20.48;15.00;;;11.60;99.90;;;;;;7587217;19;20033;-74
2023/05/26 03:34:39;;;;;;;21.50;15.55;;;11.70;99.90;;;;;;7594391;19;20010;-74
2023/05/26 03:37:12;;;;;;;23.73;15.38;;;11.70;99.90;;;;;;7593575;19;20041;-76
2023/05/26 03:39:44;;;;;;;19.92;14.20;;;11.70;99.90;;;;;;7598156;19;20018;-74
2023/05/26 03:42:17;;;;;;;23.48;13.85;;;11.70;99.90;;;;;;7596767;19;20911;-75
2023/05/26 03:44:50;;;;;;;19.52;14.43;;;11.70;99.90;;;;;;7596496;19;20015;-74
2023/05/26 03:47:23;;;;;;;20.75;15.45;;;11.70;99.90;;;;;;7593280;19;20003;-75
2023/05/26 03:49:56;;;;;;;;;;;11.60;99.90;;;;;;7571842;19;20026;-75
2023/05/26 03:52:30;;;;;;;25.08;16.45;;;11.50;99.90;;;;;;7585104;19;20686;-74
2023/05/26 03:55:04;;;;;;;22.77;15.65;;;11.40;99.90;;;;;;7587566;19;20022;-74
2023/05/26 03:57:38;;;;;;;25.05;15.82;;;11.50;99.90;;;;;;7589658;19;20119;-73
2023/05/26 04:00:11;;;;;;;21.40;15.43;;;11.50;99.90;;;;;;7582333;19;20050;-74
2023/05/26 04:02:49;;;;;;;21.48;14.50;;;11.50;99.90;;;;;;7566202;19;20018;-75
2023/05/26 04:05:22;;;;;;;21.00;15.23;;;11.60;99.90;;;;;;7585939;19;20102;-74
2023/05/26 04:07:56;;;;;;;20.88;15.70;;;11.60;99.90;;;;;;7589965;19;20044;-74
2023/05/26 04:10:29;;;;;;;21.17;15.93;;;11.60;99.90;;;;;;7552786;19;20015;-74
2023/05/26 04:13:02;;;;;;;19.02;14.18;;;11.60;99.90;;;;;;7560965;19;20343;-74
2023/05/26 04:15:34;;;;;;;20.90;13.82;;;11.60;99.90;;;;;;7553410;19;20011;-76
2023/05/26 04:18:07;;;;;;;22.30;15.68;;;11.60;99.90;;;;;;7573651;19;20079;-74
2023/05/26 04:20:39;;;;;;;19.75;14.68;;;11.70;99.90;;;;;;7589913;19;20037;-74
2023/05/26 04:23:11;;;;;;;21.38;14.63;;;11.70;99.90;;;;;;7574309;19;20615;-74
2023/05/26 04:25:44;;;;;;;19.03;13.87;;;11.70;99.90;;;;;;7571175;19;20014;-75
2023/05/26 04:28:25;;;;;;;22.58;15.70;;;11.70;99.90;;;;;;7544397;19;20629;-74
2023/05/26 04:31:19;;;;;;;21.95;15.40;;;11.80;99.90;;;;;;7535679;19;20022;-75
2023/05/26 04:34:10;;;;;;;20.05;14.23;;;11.80;99.90;;;;;;7564146;19;20010;-74
2023/05/26 04:36:54;;;;;;;19.58;13.95;;;11.90;99.90;;;;;;7516983;19;20637;-75
2023/05/26 04:39:26;;;;;;;24.48;16.67;;;12.00;99.90;;;;;;7571624;19;20642;-75
2023/05/26 04:42:02;;;;;;;26.88;15.88;;;12.00;99.90;;;;;;7577314;19;21464;-75
2023/05/26 04:44:37;;;;;;;21.08;15.55;;;12.00;99.90;;;;;;7573517;19;22037;-74
2023/05/26 04:47:10;;;;;;;21.92;14.63;;;12.00;99.90;;;;;;7569611;19;20027;-74
2023/05/26 04:49:43;;;;;;;21.52;14.48;;;12.20;99.90;;;;;;7541620;19;20014;-73
2023/05/26 04:52:16;;;;;;;21.77;15.45;;;12.30;99.90;;;;;;7541262;19;20010;-72
2023/05/26 04:54:48;;;;;;;23.65;15.80;;;12.30;99.90;;;;;;7543862;19;20014;-76
2023/05/26 04:57:23;;;;;;;21.00;15.55;;;12.30;99.90;;;;;;7551621;19;20007;-75
2023/05/26 04:59:59;;;;;;;21.85;16.00;;;12.40;99.90;;;;;;7568838;19;20021;-74
2023/05/26 05:02:31;;;;;;;24.23;15.52;;;12.50;99.90;;;;;;7561838;19;20399;-74
2023/05/26 05:05:30;;;;;;;26.40;16.95;;;12.60;99.90;;;;;;7562264;19;20038;-73
2023/05/26 05:08:02;;;;;;;29.10;17.55;;;12.70;99.90;;;;;;7516108;19;20103;-75
2023/05/26 05:10:34;;;;;;;32.92;17.67;;;12.80;99.90;;;;;;7552064;19;20714;-72
2023/05/26 05:13:07;;;;;;;41.13;20.85;;;12.80;99.90;;;;;;7571627;19;20831;-74
2023/05/26 05:15:39;;;;;;;33.30;19.02;;;12.90;99.90;;;;;;7586581;19;20014;-74
2023/05/26 05:18:11;;;;;;;27.83;17.13;;;13.10;99.90;;;;;;7571918;19;20010;-73
2023/05/26 05:20:44;;;;;;;26.40;16.75;;;13.10;99.90;;;;;;7575768;19;20018;-72
2023/05/26 05:23:17;;;;;;;24.83;15.07;;;13.20;99.90;;;;;;7539542;19;20029;-73
2023/05/26 05:25:50;;;;;;;29.03;15.87;;;13.30;99.90;;;;;;7556244;19;20019;-73
2023/05/26 05:28:22;;;;;;;28.50;15.07;;;13.40;99.90;;;;;;7560444;19;20022;-74
2023/05/26 05:31:08;;;;;;;28.25;14.90;;;13.40;99.90;;;;;;7568060;19;20014;-72
2023/05/26 05:33:43;;;;;;;29.65;17.17;;;13.50;99.90;;;;;;7556969;19;20077;-73
2023/05/26 05:36:16;;;;;;;29.23;15.77;;;13.50;99.90;;;;;;7584138;19;20022;-73
2023/05/26 05:38:48;;;;;;;29.40;16.25;;;13.70;99.90;;;;;;7560542;19;20025;-72
2023/05/26 05:41:21;;;;;;;22.47;15.53;;;13.70;99.90;;;;;;7567504;19;20365;-74
2023/05/26 05:43:56;;;;;;;25.83;15.43;;;13.80;99.90;;;;;;7573090;19;20066;-74
2023/05/26 05:46:30;;;;;;;25.63;15.23;;;13.80;99.90;;;;;;7566002;19;20018;-73
2023/05/26 05:49:08;;;;;;;25.58;14.98;;;14.00;99.90;;;;;;7569590;19;20019;-73
2023/05/26 05:51:53;;;;;;;26.20;16.23;;;14.10;99.90;;;;;;7576389;19;20075;-74
2023/05/26 05:54:26;;;;;;;23.85;15.75;;;14.30;99.90;;;;;;7556653;19;20022;-73
2023/05/26 05:57:00;;;;;;;31.23;16.73;;;14.40;99.90;;;;;;7571519;19;20017;-72
2023/05/26 05:59:32;;;;;;;25.83;15.55;;;14.50;99.90;;;;;;7569895;19;20018;-73
2023/05/26 06:02:05;;;;;;;25.20;16.05;;;14.50;99.90;;;;;;7575955;19;20022;-73
2023/05/26 06:04:38;;;;;;;27.50;15.90;;;14.70;99.90;;;;;;7554113;19;21499;-73
2023/05/26 06:07:10;;;;;;;33.65;16.42;;;14.80;99.90;;;;;;7566168;19;20275;-73
2023/05/26 06:09:42;;;;;;;30.88;17.50;;;14.90;99.90;;;;;;7575289;19;20052;-73
2023/05/26 06:12:15;;;;;;;27.58;16.65;;;15.00;99.90;;;;;;7568848;19;21053;-73
2023/05/26 06:14:47;;;;;;;28.17;16.38;;;15.00;99.90;;;;;;7580500;19;20019;-74
2023/05/26 06:17:20;;;;;;;22.73;16.20;;;15.10;99.90;;;;;;7573007;19;20013;-72
2023/05/26 06:19:52;;;;;;;25.37;16.60;;;15.20;99.90;;;;;;7587358;19;20147;-72
2023/05/26 06:22:25;;;;;;;26.85;17.13;;;15.30;99.90;;;;;;7573604;19;20279;-73
2023/05/26 06:24:57;;;;;;;24.15;16.67;;;15.40;99.90;;;;;;7584449;19;20155;-74
2023/05/26 06:27:30;;;;;;;29.40;16.93;;;15.60;99.90;;;;;;7584726;19;20026;-74
2023/05/26 06:30:03;;;;;;;27.85;16.65;;;15.60;99.90;;;;;;7578196;19;20021;-74
2023/05/26 06:32:36;;;;;;;28.33;16.33;;;15.70;99.90;;;;;;7572728;19;20014;-73
2023/05/26 06:35:09;;;;;;;26.27;16.05;;;15.80;99.90;;;;;;7557472;19;20029;-73
2023/05/26 06:37:41;;;;;;;24.35;15.38;;;15.90;99.90;;;;;;7560961;19;20121;-74
2023/05/26 06:40:14;;;;;;;26.55;15.52;;;16.00;99.90;;;;;;7567844;19;20018;-73
2023/05/26 06:42:46;;;;;;;20.37;14.40;;;16.20;99.90;;;;;;7565704;19;20019;-73
2023/05/26 06:45:19;;;;;;;26.30;15.65;;;16.40;99.90;;;;;;7573731;19;20458;-75
2023/05/26 06:47:53;;;;;;;25.92;16.02;;;16.40;99.90;;;;;;7565103;19;20010;-74
2023/05/26 06:50:29;;;;;;;24.98;16.13;;;16.50;99.90;;;;;;7546703;19;20021;-74
2023/05/26 06:53:03;;;;;;;22.52;14.52;;;16.70;99.90;;;;;;7566881;19;20018;-74
2023/05/26 06:55:35;;;;;;;22.92;15.40;;;16.80;99.90;;;;;;7564013;19;20014;-74
2023/05/26 06:58:08;;;;;;;31.70;15.10;;;16.80;99.90;;;;;;7568377;19;20019;-75
2023/05/26 07:00:56;;;;;;;25.80;15.90;;;16.80;99.90;;;;;;7576015;19;20019;-75
2023/05/26 07:03:30;;;;;;;24.02;15.18;;;17.00;99.90;;;;;;7567385;19;20019;-75
2023/05/26 07:06:05;;;;;;;21.63;15.80;;;17.10;99.90;;;;;;7577064;19;20021;-74
2023/05/26 07:08:40;;;;;;;21.85;14.93;;;17.20;99.90;;;;;;7563145;19;20064;-75
2023/05/26 07:11:24;;;;;;;28.30;15.00;;;17.30;99.90;;;;;;7569343;19;20019;-76
2023/05/26 07:14:04;;;;;;;24.40;15.55;;;17.40;99.90;;;;;;7572393;19;20018;-75
2023/05/26 07:16:36;;;;;;;23.73;16.17;;;17.50;99.90;;;;;;7579675;19;20010;-74
2023/05/26 07:19:09;;;;;;;30.40;15.13;;;17.50;99.90;;;;;;7586063;19;20019;-74
2023/05/26 07:21:41;;;;;;;26.73;14.77;;;17.60;99.90;;;;;;7581033;19;20109;-74
2023/05/26 07:24:14;;;;;;;26.35;15.80;;;17.80;99.90;;;;;;7587812;19;20026;-76
2023/05/26 07:26:46;;;;;;;28.70;14.98;;;17.90;99.90;;;;;;7587854;19;20024;-76
2023/05/26 07:29:18;;;;;;;24.67;14.55;;;18.00;99.90;;;;;;7577707;19;20014;-74
2023/05/26 07:31:51;;;;;;;23.17;15.70;;;18.10;99.90;;;;;;7575698;19;20507;-76
2023/05/26 07:34:23;;;;;;;22.70;14.77;;;18.20;99.90;;;;;;7580921;19;20380;-74
2023/05/26 07:36:55;;;;;;;24.05;14.70;;;18.30;99.90;;;;;;7584368;19;20029;-76
2023/05/26 07:39:28;;;;;;;24.05;15.48;;;18.40;99.90;;;;;;7575713;19;20024;-75
2023/05/26 07:42:00;;;;;;;23.17;14.93;;;18.60;99.90;;;;;;7576920;19;20021;-76
2023/05/26 07:44:32;;;;;;;25.42;14.63;;;18.60;99.90;;;;;;7584228;19;20022;-75
2023/05/26 07:47:04;;;;;;;26.98;15.65;;;18.70;99.90;;;;;;7576671;19;20025;-75
2023/05/26 07:49:37;;;;;;;25.70;15.33;;;18.80;99.90;;;;;;7558971;19;20117;-74
2023/05/26 07:52:09;;;;;;;21.25;13.63;;;18.90;99.90;;;;;;7571421;19;20283;-75
2023/05/26 07:54:41;;;;;;;23.55;13.60;;;19.00;99.90;;;;;;7566679;19;20018;-75
2023/05/26 07:57:14;;;;;;;23.33;14.10;;;19.20;99.90;;;;;;7557975;19;20023;-77
2023/05/26 08:00:00;;;;;;;25.90;15.63;;;19.30;99.90;;;;;;7573014;19;20028;-84
2023/05/26 08:02:32;;;;;;;20.20;14.27;;;19.50;99.90;;;;;;7578485;19;20060;-75
2023/05/26 08:05:05;;;;;;;25.05;15.20;;;19.40;99.90;;;;;;7588726;19;20534;-78
2023/05/26 08:07:38;;;;;;;21.02;14.85;;;19.60;99.90;;;;;;7578492;19;20021;-80
2023/05/26 08:10:11;;;;;;;19.75;14.20;;;19.60;99.90;;;;;;7575535;19;20010;-77
2023/05/26 08:12:44;;;;;;;22.05;14.20;;;19.70;99.90;;;;;;7573294;19;20022;-81
2023/05/26 08:15:16;;;;;;;24.45;16.25;;;19.70;99.90;;;;;;7584770;19;20017;-82
2023/05/26 08:17:52;;;;;;;23.70;14.38;;;19.80;99.90;;;;;;7569061;19;20022;-81
2023/05/26 08:20:24;;;;;;;24.23;13.38;;;19.70;99.90;;;;;;7574989;19;21130;-81
2023/05/26 08:23:00;;;;;;;21.03;13.20;;;19.90;99.90;;;;;;7566039;19;20018;-77
2023/05/26 08:25:32;;;;;;;26.15;14.95;;;20.10;99.90;;;;;;7569824;19;20023;-75
2023/05/26 08:28:05;;;;;;;21.98;14.43;;;20.30;99.90;;;;;;7573064;19;20627;-75
2023/05/26 08:30:37;;;;;;;24.05;15.05;;;20.10;99.90;;;;;;7569532;19;20019;-75
2023/05/26 08:33:09;;;;;;;22.88;13.88;;;20.00;99.90;;;;;;7565539;19;20502;-75
2023/05/26 08:35:41;;;;;;;21.25;14.15;;;20.10;99.90;;;;;;7566663;19;20994;-74
2023/05/26 08:38:14;;;;;;;23.67;13.15;;;20.10;99.90;;;;;;7573784;19;20037;-74
2023/05/26 08:40:50;;;;;;;19.77;12.63;;;20.20;99.90;;;;;;7576458;19;21426;-75
2023/05/26 08:43:32;;;;;;;23.10;13.40;;;20.40;99.90;;;;;;7564464;19;20777;-74
2023/05/26 08:46:18;;;;;;;21.63;12.82;;;20.60;99.90;;;;;;7574212;19;20018;-75
2023/05/26 08:48:53;;;;;;;22.15;13.48;;;20.70;99.20;;;;;;7579383;19;20895;-76
2023/05/26 08:51:26;;;;;;;22.77;12.68;;;20.80;98.60;;;;;;7581935;19;20018;-75
2023/05/26 08:53:59;;;;;;;22.17;12.85;;;20.90;99.00;;;;;;7572680;19;20029;-74
2023/05/26 08:56:32;;;;;;;23.58;13.70;;;21.00;98.90;;;;;;7569202;19;20014;-74
2023/05/26 08:59:08;;;;;;;20.40;13.95;;;20.90;98.10;;;;;;7565317;19;20015;-74
2023/05/26 09:01:42;;;;;;;22.30;12.45;;;21.10;96.80;;;;;;7563404;19;20022;-74
2023/05/26 09:04:14;;;;;;;20.98;11.10;;;21.10;97.10;;;;;;7575452;19;20059;-75
2023/05/26 09:06:46;;;;;;;22.42;12.52;;;21.10;97.50;;;;;;7561978;19;20025;-74
2023/05/26 09:09:39;;;;;;;21.00;12.50;;;21.20;95.90;;;;;;7575791;19;20041;-74
2023/05/26 09:12:12;;;;;;;18.05;12.20;;;21.30;94.90;;;;;;7583771;19;20485;-75
2023/05/26 09:14:45;;;;;;;20.23;10.33;;;21.30;93.60;;;;;;7580145;19;20981;-74
2023/05/26 09:17:17;;;;;;;18.75;11.27;;;21.40;92.80;;;;;;7577739;19;20267;-75
2023/05/26 09:19:49;;;;;;;15.85;9.23;;;21.50;91.70;;;;;;7569202;19;20741;-75
2023/05/26 09:22:34;;;;;;;16.77;9.90;;;21.40;90.80;;;;;;7572965;19;20130;-74
2023/05/26 09:25:06;;;;;;;17.25;9.65;;;21.50;90.00;;;;;;7568573;19;20029;-75
2023/05/26 09:27:38;;;;;;;18.38;10.43;;;21.50;90.60;;;;;;7575796;19;20682;-75
2023/05/26 09:30:11;;;;;;;15.82;10.90;;;21.60;91.80;;;;;;7563361;19;20010;-74
2023/05/26 09:32:45;;;;;;;16.58;11.15;;;21.60;92.30;;;;;;7566085;19;20018;-75
2023/05/26 09:35:17;;;;;;;15.10;10.70;;;21.70;92.10;;;;;;7577552;19;20587;-74
2023/05/26 09:37:50;;;;;;;19.80;10.45;;;21.90;91.60;;;;;;7545719;19;20109;-75
2023/05/26 09:40:24;;;;;;;22.92;11.93;;;21.90;91.50;;;;;;7576859;19;20412;-76
2023/05/26 09:42:56;;;;;;;22.00;12.77;;;22.10;91.30;;;;;;7569551;19;20021;-75
2023/05/26 09:45:36;;;;;;;17.38;10.57;;;22.10;91.20;;;;;;7563549;19;20014;-74
2023/05/26 09:48:09;;;;;;;20.02;11.70;;;22.20;90.80;;;;;;7563751;19;20019;-75
2023/05/26 09:50:41;;;;;;;19.67;11.73;;;22.40;89.60;;;;;;7572827;19;20090;-72
2023/05/26 09:53:14;;;;;;;14.25;10.15;;;22.40;88.50;;;;;;7575977;19;20046;-74
2023/05/26 09:55:49;;;;;;;17.15;10.68;;;22.50;89.60;;;;;;7587429;19;20017;-74
2023/05/26 09:58:24;;;;;;;17.90;10.43;;;22.50;85.40;;;;;;7584870;19;20124;-75
2023/05/26 10:00:58;;;;;;;21.67;10.18;;;22.60;85.50;;;;;;7580423;19;20030;-73
2023/05/26 10:03:31;;;;;;;18.30;9.82;;;22.60;82.20;;;;;;7570048;19;20534;-74
2023/05/26 10:06:04;;;;;;;21.50;11.00;;;22.60;84.50;;;;;;7551207;19;20029;-75
2023/05/26 10:08:39;;;;;;;16.95;10.25;;;22.80;83.80;;;;;;7569930;19;20014;-74
2023/05/26 10:11:13;;;;;;;20.08;11.35;;;22.90;82.00;;;;;;7574190;19;20019;-73
2023/05/26 10:13:46;;;;;;;23.10;11.18;;;22.80;80.50;;;;;;7569153;19;20022;-73
2023/05/26 10:16:18;;;;;;;15.73;9.75;;;22.80;82.70;;;;;;7576602;19;20819;-73
2023/05/26 10:18:51;;;;;;;13.88;8.98;;;23.10;83.60;;;;;;7570331;19;20010;-73
2023/05/26 10:21:28;;;;;;;13.88;8.82;;;23.80;78.90;;;;;;7575073;19;20079;-73
2023/05/26 10:24:20;;;;;;;17.70;9.60;;;24.60;77.00;;;;;;7573001;19;20465;-74
2023/05/26 10:26:54;;;;;;;20.67;12.40;;;25.20;75.30;;;;;;7584542;19;20065;-73
2023/05/26 10:29:44;;;;;;;22.80;10.60;;;25.40;72.80;;;;;;7571346;19;20868;-74
2023/05/26 10:32:52;;;;;;;17.95;10.20;;;25.30;72.00;;;;;;7573760;19;20206;-74
2023/05/26 10:35:27;;;;;;;19.30;9.98;;;24.60;73.10;;;;;;7559689;19;20679;-74
2023/05/26 10:38:02;;;;;;;16.63;9.35;;;24.00;74.80;;;;;;7563190;19;20015;-74
2023/05/26 10:40:41;;;;;;;18.80;10.57;;;23.90;77.30;;;;;;7572958;19;20014;-75
2023/05/26 10:43:20;;;;;;;20.70;10.20;;;23.80;75.20;;;;;;7579439;19;20019;-74
2023/05/26 10:45:57;;;;;;;13.90;9.32;;;23.70;77.00;;;;;;7576354;19;20929;-73
2023/05/26 10:48:54;;;;;;;14.02;10.13;;;24.30;75.10;;;;;;7592098;19;20074;-73
2023/05/26 10:51:32;;;;;;;15.40;9.63;;;24.80;73.20;;;;;;7590054;19;20979;-74
2023/05/26 10:54:21;;;;;;;13.43;8.98;;;25.30;71.30;;;;;;7583177;19;20022;-74
2023/05/26 10:56:54;;;;;;;17.10;8.63;;;25.50;71.40;;;;;;7576078;19;20010;-72
2023/05/26 10:59:36;;;;;;;16.40;9.10;;;25.20;67.30;;;;;;7579514;19;20098;-73
2023/05/26 11:02:08;;;;;;;15.68;8.75;;;25.10;67.80;;;;;;7590236;19;20015;-73
2023/05/26 11:04:46;;;;;;;17.97;9.40;;;25.40;69.30;;;;;;7591759;19;20626;-73
2023/05/26 11:07:28;;;;;;;12.98;8.70;;;25.70;68.40;;;;;;7592074;19;20017;-74
2023/05/26 11:10:06;;;;;;;14.77;9.60;;;26.00;69.50;;;;;;7595848;19;20522;-75
2023/05/26 11:12:54;;;;;;;16.52;9.85;;;26.10;66.90;;;;;;7584937;19;21359;-75
2023/05/26 11:15:35;;;;;;;16.83;9.43;;;25.70;65.90;;;;;;7593069;19;20018;-73
2023/05/26 11:18:09;;;;;;;19.40;10.35;;;25.30;67.70;;;;;;7580813;19;20010;-73
2023/05/26 11:20:42;;;;;;;18.60;9.85;;;24.80;68.00;;;;;;7568560;19;20827;-76
2023/05/26 11:23:16;;;;;;;;;;;24.30;69.90;;;;;;7571325;19;20018;-73
2023/05/26 11:25:48;;;;;;;13.35;9.55;;;24.40;70.80;;;;;;7583831;19;20233;-73
2023/05/26 11:28:21;;;;;;;15.13;9.10;;;24.60;70.10;;;;;;7587744;19;20810;-73
2023/05/26 11:30:54;;;;;;;14.02;8.75;;;25.00;68.60;;;;;;7586246;19;20052;-74
2023/05/26 11:33:26;;;;;;;15.80;9.20;;;25.20;67.60;;;;;;7575769;19;20022;-75
2023/05/26 11:36:05;;;;;;;21.05;9.52;;;25.50;68.50;;;;;;7579366;19;20101;-74
2023/05/26 11:38:39;;;;;;;17.13;9.57;;;26.10;68.10;;;;;;7579970;19;20019;-73
2023/05/26 11:41:17;;;;;;;14.77;8.70;;;26.30;65.70;;;;;;7589481;19;20021;-74
2023/05/26 11:43:49;;;;;;;13.95;9.07;;;26.50;65.10;;;;;;7562795;19;20101;-75
2023/05/26 11:46:30;;;;;;;18.07;10.67;;;26.80;64.40;;;;;;7552702;19;21312;-74
2023/05/26 11:49:03;;;;;;;14.70;9.45;;;26.90;63.30;;;;;;7552538;19;20015;-75
2023/05/26 11:51:35;;;;;;;12.45;9.40;;;26.80;63.70;;;;;;7568399;19;20137;-73
2023/05/26 11:54:10;;;;;;;16.50;9.57;;;27.00;63.10;;;;;;7591069;19;20010;-73
2023/05/26 11:56:47;;;;;;;13.82;9.07;;;26.80;61.70;;;;;;7570746;19;20824;-74
2023/05/26 11:59:21;;;;;;;16.85;8.82;;;26.80;62.20;;;;;;7579570;19;20127;-74
2023/05/26 12:01:58;;;;;;;19.55;8.80;;;27.10;62.50;;;;;;7590315;19;20026;-75
2023/05/26 12:04:31;;;;;;;18.08;9.63;;;27.30;62.50;;;;;;7582127;19;21715;-73
2023/05/26 12:07:03;;;;;;;14.93;8.63;;;26.80;60.40;;;;;;7592119;19;20018;-74
2023/05/26 12:09:36;;;;;;;13.55;8.55;;;27.10;61.60;;;;;;7595379;19;20024;-74
2023/05/26 12:12:10;;;;;;;15.23;8.77;;;27.20;60.20;;;;;;7577163;19;20039;-73
2023/05/26 12:14:45;;;;;;;15.00;9.13;;;27.30;59.20;;;;;;7582610;19;20115;-74
2023/05/26 12:17:17;;;;;;;21.25;8.82;;;27.00;59.30;;;;;;7580438;19;20608;-73
2023/05/26 12:19:50;;;;;;;12.50;8.77;;;27.10;60.60;;;;;;7582810;19;20018;-73
2023/05/26 12:22:28;;;;;;;14.77;8.70;;;27.40;60.90;;;;;;7589986;19;20666;-74
2023/05/26 12:25:00;;;;;;;11.90;8.05;;;27.20;59.00;;;;;;7588933;19;20018;-74
2023/05/26 12:27:37;;;;;;;19.02;8.70;;;26.80;60.10;;;;;;7589754;19;20014;-74
2023/05/26 12:30:21;;;;;;;10.50;8.43;;;26.00;61.00;;;;;;7570158;19;20109;-74
2023/05/26 12:33:01;;;;;;;12.40;7.78;;;25.60;61.40;;;;;;7566135;19;20045;-75
2023/05/26 12:35:33;;;;;;;12.32;8.15;;;25.40;62.00;;;;;;7574373;19;21161;-73
2023/05/26 12:38:06;;;;;;;14.38;8.05;;;25.30;63.60;;;;;;7591710;19;20018;-73
2023/05/26 12:40:38;;;;;;;10.27;8.43;;;24.80;62.80;;;;;;7582756;19;20023;-74
2023/05/26 12:43:11;;;;;;;16.48;7.85;;;24.50;63.40;;;;;;7571399;19;20018;-73
2023/05/26 12:45:44;;;;;;;13.75;8.05;;;24.30;64.20;;;;;;7585390;19;20014;-73
2023/05/26 12:48:16;;;;;;;14.57;8.75;;;24.10;65.10;;;;;;7583159;19;20040;-73
2023/05/26 12:50:49;;;;;;;16.25;8.50;;;24.00;64.80;;;;;;7575022;19;20572;-74
2023/05/26 12:53:22;;;;;;;13.73;8.57;;;23.80;64.80;;;;;;7570689;19;20030;-74
2023/05/26 12:55:56;;;;;;;12.98;8.82;;;23.60;66.00;;;;;;7574589;19;20021;-73
2023/05/26 12:58:28;;;;;;;12.45;8.30;;;23.50;65.30;;;;;;7575175;19;20006;-74
2023/05/26 13:01:01;;;;;;;13.50;8.63;;;23.40;65.60;;;;;;7570363;19;20039;-72
2023/05/26 13:03:34;;;;;;;13.57;8.25;;;23.40;66.20;;;;;;7584872;19;20053;-75
2023/05/26 13:06:09;;;;;;;13.32;8.10;;;23.30;67.60;;;;;;7576937;19;21047;-74
2023/05/26 13:08:41;;;;;;;17.02;8.10;;;23.30;66.80;;;;;;7576723;19;20038;-75